sensor_id;sensor_type;location;lat;lon;timestamp;temperature;humidity
73133;DHT22;61320;52.008;4.530;2023-05-10T00:01:46;13.90;84.29
73133;DHT22;61320;52.008;4.530;2023-05-10T00:04:12;13.93;84.26
73133;DHT22;61320;52.008;4.530;2023-05-10T00:06:37;13.87;83.88
73133;DHT22;61320;52.008;4.530;2023-05-10T00:09:03;13.80;84.37
73133;DHT22;61320;52.008;4.530;2023-05-10T00:11:29;13.76;84.42
73133;DHT22;61320;52.008;4.530;2023-05-10T00:13:54;13.82;84.46
73133;DHT22;61320;52.008;4.530;2023-05-10T00:16:20;13.87;84.41
73133;DHT22;61320;52.008;4.530;2023-05-10T00:18:45;13.87;84.53
73133;DHT22;61320;52.008;4.530;2023-05-10T00:21:11;13.93;84.15
73133;DHT22;61320;52.008;4.530;2023-05-10T00:23:36;13.95;83.81
73133;DHT22;61320;52.008;4.530;2023-05-10T00:26:02;13.89;83.61
73133;DHT22;61320;52.008;4.530;2023-05-10T00:28:28;13.85;84.34
73133;DHT22;61320;52.008;4.530;2023-05-10T00:30:54;13.83;84.63
73133;DHT22;61320;52.008;4.530;2023-05-10T00:33:19;13.90;84.34
73133;DHT22;61320;52.008;4.530;2023-05-10T00:35:45;13.95;84.36
73133;DHT22;61320;52.008;4.530;2023-05-10T00:38:10;13.95;84.36
73133;DHT22;61320;52.008;4.530;2023-05-10T00:40:36;13.90;84.33
73133;DHT22;61320;52.008;4.530;2023-05-10T00:43:02;13.90;84.37
73133;DHT22;61320;52.008;4.530;2023-05-10T00:45:30;13.87;84.14
73133;DHT22;61320;52.008;4.530;2023-05-10T00:47:55;13.85;84.31
73133;DHT22;61320;52.008;4.530;2023-05-10T00:50:22;13.83;84.14
73133;DHT22;61320;52.008;4.530;2023-05-10T00:55:14;13.78;85.09
73133;DHT22;61320;52.008;4.530;2023-05-10T00:57:40;13.82;84.59
73133;DHT22;61320;52.008;4.530;2023-05-10T01:00:06;13.80;84.85
73133;DHT22;61320;52.008;4.530;2023-05-10T01:02:34;13.86;84.78
73133;DHT22;61320;52.008;4.530;2023-05-10T01:05:02;13.83;84.40
73133;DHT22;61320;52.008;4.530;2023-05-10T01:07:29;13.73;84.86
73133;DHT22;61320;52.008;4.530;2023-05-10T01:09:55;13.80;84.81
73133;DHT22;61320;52.008;4.530;2023-05-10T01:12:22;13.78;85.29
73133;DHT22;61320;52.008;4.530;2023-05-10T01:14:48;13.87;84.77
73133;DHT22;61320;52.008;4.530;2023-05-10T01:48:40;13.96;85.16
73133;DHT22;61320;52.008;4.530;2023-05-10T01:51:14;14.03;85.30
73133;DHT22;61320;52.008;4.530;2023-05-10T01:53:44;14.02;84.78
73133;DHT22;61320;52.008;4.530;2023-05-10T01:56:12;14.03;85.07
73133;DHT22;61320;52.008;4.530;2023-05-10T01:58:43;14.00;84.25
73133;DHT22;61320;52.008;4.530;2023-05-10T02:01:12;14.02;85.20
73133;DHT22;61320;52.008;4.530;2023-05-10T02:03:41;14.07;85.36
73133;DHT22;61320;52.008;4.530;2023-05-10T02:06:10;14.16;85.34
73133;DHT22;61320;52.008;4.530;2023-05-10T02:08:40;14.20;85.15
73133;DHT22;61320;52.008;4.530;2023-05-10T02:11:07;14.27;84.99
73133;DHT22;61320;52.008;4.530;2023-05-10T02:13:36;14.28;84.88
73133;DHT22;61320;52.008;4.530;2023-05-10T02:16:05;14.26;84.38
73133;DHT22;61320;52.008;4.530;2023-05-10T02:18:34;14.23;84.20
73133;DHT22;61320;52.008;4.530;2023-05-10T02:21:02;14.19;84.61
73133;DHT22;61320;52.008;4.530;2023-05-10T02:23:29;14.24;84.77
73133;DHT22;61320;52.008;4.530;2023-05-10T02:25:57;14.19;84.64
73133;DHT22;61320;52.008;4.530;2023-05-10T02:28:25;14.26;84.39
73133;DHT22;61320;52.008;4.530;2023-05-10T02:30:53;14.28;84.82
73133;DHT22;61320;52.008;4.530;2023-05-10T02:33:21;14.33;84.79
73133;DHT22;61320;52.008;4.530;2023-05-10T02:35:48;14.34;84.81
73133;DHT22;61320;52.008;4.530;2023-05-10T02:38:16;14.41;84.81
73133;DHT22;61320;52.008;4.530;2023-05-10T02:40:44;14.44;84.33
73133;DHT22;61320;52.008;4.530;2023-05-10T02:43:14;14.47;84.22
73133;DHT22;61320;52.008;4.530;2023-05-10T02:45:43;14.47;84.77
73133;DHT22;61320;52.008;4.530;2023-05-10T02:48:12;14.51;84.16
73133;DHT22;61320;52.008;4.530;2023-05-10T02:50:44;14.51;83.87
73133;DHT22;61320;52.008;4.530;2023-05-10T02:53:15;14.51;83.97
73133;DHT22;61320;52.008;4.530;2023-05-10T02:55:50;14.48;84.36
73133;DHT22;61320;52.008;4.530;2023-05-10T02:58:16;14.52;84.65
73133;DHT22;61320;52.008;4.530;2023-05-10T03:00:43;14.54;83.83
73133;DHT22;61320;52.008;4.530;2023-05-10T03:03:09;14.49;83.69
73133;DHT22;61320;52.008;4.530;2023-05-10T03:05:34;14.44;84.49
73133;DHT22;61320;52.008;4.530;2023-05-10T03:07:59;14.54;84.16
73133;DHT22;61320;52.008;4.530;2023-05-10T03:10:31;14.52;83.81
73133;DHT22;61320;52.008;4.530;2023-05-10T03:15:49;14.49;84.45
73133;DHT22;61320;52.008;4.530;2023-05-10T03:18:21;14.49;84.59
73133;DHT22;61320;52.008;4.530;2023-05-10T03:20:50;14.52;84.62
73133;DHT22;61320;52.008;4.530;2023-05-10T03:23:41;14.61;84.34
73133;DHT22;61320;52.008;4.530;2023-05-10T03:26:08;14.65;83.94
73133;DHT22;61320;52.008;4.530;2023-05-10T03:28:36;14.67;84.56
73133;DHT22;61320;52.008;4.530;2023-05-10T03:31:04;14.72;84.27
73133;DHT22;61320;52.008;4.530;2023-05-10T03:33:31;14.74;83.83
73133;DHT22;61320;52.008;4.530;2023-05-10T03:35:57;14.72;84.07
73133;DHT22;61320;52.008;4.530;2023-05-10T03:38:22;14.72;83.72
73133;DHT22;61320;52.008;4.530;2023-05-10T03:40:48;14.64;83.60
73133;DHT22;61320;52.008;4.530;2023-05-10T03:43:13;14.64;84.20
73133;DHT22;61320;52.008;4.530;2023-05-10T03:45:39;14.63;83.61
73133;DHT22;61320;52.008;4.530;2023-05-10T03:48:05;14.61;84.15
73133;DHT22;61320;52.008;4.530;2023-05-10T03:50:30;14.65;84.19
73133;DHT22;61320;52.008;4.530;2023-05-10T03:52:56;14.64;83.87
73133;DHT22;61320;52.008;4.530;2023-05-10T03:55:22;14.65;84.38
73133;DHT22;61320;52.008;4.530;2023-05-10T03:57:48;14.68;84.19
73133;DHT22;61320;52.008;4.530;2023-05-10T04:00:15;14.72;83.61
73133;DHT22;61320;52.008;4.530;2023-05-10T04:02:41;14.68;83.92
73133;DHT22;61320;52.008;4.530;2023-05-10T04:05:06;14.71;83.70
73133;DHT22;61320;52.008;4.530;2023-05-10T04:07:32;14.68;84.19
73133;DHT22;61320;52.008;4.530;2023-05-10T04:09:57;14.72;84.04
73133;DHT22;61320;52.008;4.530;2023-05-10T04:12:23;14.64;83.15
73133;DHT22;61320;52.008;4.530;2023-05-10T04:14:49;14.60;83.41
73133;DHT22;61320;52.008;4.530;2023-05-10T04:17:14;14.57;83.42
73133;DHT22;61320;52.008;4.530;2023-05-10T04:19:39;14.48;82.97
73133;DHT22;61320;52.008;4.530;2023-05-10T04:22:05;14.36;83.09
73133;DHT22;61320;52.008;4.530;2023-05-10T04:24:30;14.30;83.73
73133;DHT22;61320;52.008;4.530;2023-05-10T04:26:56;14.30;84.04
73133;DHT22;61320;52.008;4.530;2023-05-10T04:29:21;14.31;83.41
73133;DHT22;61320;52.008;4.530;2023-05-10T04:31:47;14.27;83.56
73133;DHT22;61320;52.008;4.530;2023-05-10T04:34:12;14.23;83.82
73133;DHT22;61320;52.008;4.530;2023-05-10T04:36:38;14.27;84.20
73133;DHT22;61320;52.008;4.530;2023-05-10T04:39:03;14.31;84.42
73133;DHT22;61320;52.008;4.530;2023-05-10T04:41:29;14.37;83.93
73133;DHT22;61320;52.008;4.530;2023-05-10T04:43:55;14.40;84.34
73133;DHT22;61320;52.008;4.530;2023-05-10T04:46:20;14.44;84.04
73133;DHT22;61320;52.008;4.530;2023-05-10T04:48:46;14.44;83.46
73133;DHT22;61320;52.008;4.530;2023-05-10T04:51:11;14.36;82.98
73133;DHT22;61320;52.008;4.530;2023-05-10T04:53:37;14.33;83.40
73133;DHT22;61320;52.008;4.530;2023-05-10T04:56:03;14.30;83.65
73133;DHT22;61320;52.008;4.530;2023-05-10T04:58:28;14.31;83.95
73133;DHT22;61320;52.008;4.530;2023-05-10T05:00:54;14.34;83.66
73133;DHT22;61320;52.008;4.530;2023-05-10T05:03:19;14.37;83.76
73133;DHT22;61320;52.008;4.530;2023-05-10T05:05:45;14.38;83.51
73133;DHT22;61320;52.008;4.530;2023-05-10T05:08:10;14.38;83.41
73133;DHT22;61320;52.008;4.530;2023-05-10T05:10:36;14.36;83.78
73133;DHT22;61320;52.008;4.530;2023-05-10T05:13:01;14.41;83.99
73133;DHT22;61320;52.008;4.530;2023-05-10T05:15:27;14.47;83.72
73133;DHT22;61320;52.008;4.530;2023-05-10T05:17:53;14.44;83.15
73133;DHT22;61320;52.008;4.530;2023-05-10T05:20:18;14.44;83.06
73133;DHT22;61320;52.008;4.530;2023-05-10T05:22:44;14.41;83.68
73133;DHT22;61320;52.008;4.530;2023-05-10T05:25:10;14.41;83.05
73133;DHT22;61320;52.008;4.530;2023-05-10T05:27:36;14.45;83.52
73133;DHT22;61320;52.008;4.530;2023-05-10T05:30:02;14.47;83.63
73133;DHT22;61320;52.008;4.530;2023-05-10T05:32:28;14.48;83.69
73133;DHT22;61320;52.008;4.530;2023-05-10T05:34:53;14.51;83.26
73133;DHT22;61320;52.008;4.530;2023-05-10T05:37:20;14.51;83.16
73133;DHT22;61320;52.008;4.530;2023-05-10T05:39:47;14.52;83.40
73133;DHT22;61320;52.008;4.530;2023-05-10T05:42:13;14.54;83.70
73133;DHT22;61320;52.008;4.530;2023-05-10T05:44:40;14.54;82.65
73133;DHT22;61320;52.008;4.530;2023-05-10T05:47:06;14.48;83.49
73133;DHT22;61320;52.008;4.530;2023-05-10T05:49:32;14.47;83.13
73133;DHT22;61320;52.008;4.530;2023-05-10T05:52:02;14.47;83.41
73133;DHT22;61320;52.008;4.530;2023-05-10T05:54:28;14.41;83.90
73133;DHT22;61320;52.008;4.530;2023-05-10T05:56:55;14.45;84.17
73133;DHT22;61320;52.008;4.530;2023-05-10T05:59:21;14.51;84.34
73133;DHT22;61320;52.008;4.530;2023-05-10T06:01:47;14.49;84.37
73133;DHT22;61320;52.008;4.530;2023-05-10T06:04:12;14.60;84.15
73133;DHT22;61320;52.008;4.530;2023-05-10T06:06:38;14.60;84.11
73133;DHT22;61320;52.008;4.530;2023-05-10T06:09:03;14.61;83.32
73133;DHT22;61320;52.008;4.530;2023-05-10T06:11:28;14.57;83.34
73133;DHT22;61320;52.008;4.530;2023-05-10T06:13:55;14.57;83.65
73133;DHT22;61320;52.008;4.530;2023-05-10T06:16:21;14.51;83.51
73133;DHT22;61320;52.008;4.530;2023-05-10T06:18:46;14.57;83.92
73133;DHT22;61320;52.008;4.530;2023-05-10T06:21:12;14.65;83.76
73133;DHT22;61320;52.008;4.530;2023-05-10T06:23:37;14.72;84.21
73133;DHT22;61320;52.008;4.530;2023-05-10T06:26:03;14.84;83.27
73133;DHT22;61320;52.008;4.530;2023-05-10T06:28:28;14.86;83.77
73133;DHT22;61320;52.008;4.530;2023-05-10T06:30:53;14.93;84.01
73133;DHT22;61320;52.008;4.530;2023-05-10T06:33:19;15.03;84.05
73133;DHT22;61320;52.008;4.530;2023-05-10T06:35:44;15.12;83.72
73133;DHT22;61320;52.008;4.530;2023-05-10T06:38:10;15.22;83.02
73133;DHT22;61320;52.008;4.530;2023-05-10T06:40:35;15.26;82.70
73133;DHT22;61320;52.008;4.530;2023-05-10T06:43:01;15.27;83.81
73133;DHT22;61320;52.008;4.530;2023-05-10T06:45:26;15.40;83.82
73133;DHT22;61320;52.008;4.530;2023-05-10T06:47:52;15.43;82.41
73133;DHT22;61320;52.008;4.530;2023-05-10T06:50:17;15.44;81.28
73133;DHT22;61320;52.008;4.530;2023-05-10T06:52:43;15.35;82.13
73133;DHT22;61320;52.008;4.530;2023-05-10T06:55:08;15.33;80.95
73133;DHT22;61320;52.008;4.530;2023-05-10T06:57:34;15.12;81.98
73133;DHT22;61320;52.008;4.530;2023-05-10T07:00:00;15.15;83.96
73133;DHT22;61320;52.008;4.530;2023-05-10T07:02:26;15.26;82.31
73133;DHT22;61320;52.008;4.530;2023-05-10T07:04:52;15.25;81.00
73133;DHT22;61320;52.008;4.530;2023-05-10T07:07:18;15.02;81.84
73133;DHT22;61320;52.008;4.530;2023-05-10T07:09:44;15.02;82.43
73133;DHT22;61320;52.008;4.530;2023-05-10T07:12:10;15.00;82.92
73133;DHT22;61320;52.008;4.530;2023-05-10T07:14:35;15.06;82.85
73133;DHT22;61320;52.008;4.530;2023-05-10T07:17:01;15.13;83.34
73133;DHT22;61320;52.008;4.530;2023-05-10T07:19:26;15.25;83.73
73133;DHT22;61320;52.008;4.530;2023-05-10T07:21:52;15.32;82.38
73133;DHT22;61320;52.008;4.530;2023-05-10T07:24:17;15.42;83.99
73133;DHT22;61320;52.008;4.530;2023-05-10T07:26:43;15.50;82.97
73133;DHT22;61320;52.008;4.530;2023-05-10T07:29:09;15.58;83.04
73133;DHT22;61320;52.008;4.530;2023-05-10T07:31:35;15.64;83.11
73133;DHT22;61320;52.008;4.530;2023-05-10T07:34:00;15.73;82.35
73133;DHT22;61320;52.008;4.530;2023-05-10T07:36:27;15.71;81.57
73133;DHT22;61320;52.008;4.530;2023-05-10T07:38:53;15.73;82.09
73133;DHT22;61320;52.008;4.530;2023-05-10T07:41:18;15.67;82.08
73133;DHT22;61320;52.008;4.530;2023-05-10T07:43:43;15.66;82.51
73133;DHT22;61320;52.008;4.530;2023-05-10T07:46:09;15.70;82.41
73133;DHT22;61320;52.008;4.530;2023-05-10T07:48:36;15.77;82.47
73133;DHT22;61320;52.008;4.530;2023-05-10T07:51:02;15.80;81.36
73133;DHT22;61320;52.008;4.530;2023-05-10T07:53:27;15.78;82.41
73133;DHT22;61320;52.008;4.530;2023-05-10T07:55:58;15.83;83.07
73133;DHT22;61320;52.008;4.530;2023-05-10T07:58:24;15.87;80.29
73133;DHT22;61320;52.008;4.530;2023-05-10T08:00:49;15.85;82.55
73133;DHT22;61320;52.008;4.530;2023-05-10T08:03:15;15.85;80.20
73133;DHT22;61320;52.008;4.530;2023-05-10T08:05:41;15.73;80.80
73133;DHT22;61320;52.008;4.530;2023-05-10T08:08:06;15.61;80.39
73133;DHT22;61320;52.008;4.530;2023-05-10T08:10:32;15.54;80.77
73133;DHT22;61320;52.008;4.530;2023-05-10T08:12:57;15.47;80.83
73133;DHT22;61320;52.008;4.530;2023-05-10T08:15:24;15.43;80.83
73133;DHT22;61320;52.008;4.530;2023-05-10T08:17:51;15.40;82.54
73133;DHT22;61320;52.008;4.530;2023-05-10T08:20:17;15.46;83.25
73133;DHT22;61320;52.008;4.530;2023-05-10T08:22:45;15.57;80.63
73133;DHT22;61320;52.008;4.530;2023-05-10T08:25:11;15.42;81.03
73133;DHT22;61320;52.008;4.530;2023-05-10T08:27:36;15.37;82.63
73133;DHT22;61320;52.008;4.530;2023-05-10T08:30:02;15.44;82.12
73133;DHT22;61320;52.008;4.530;2023-05-10T08:32:27;15.53;81.75
73133;DHT22;61320;52.008;4.530;2023-05-10T08:34:53;15.58;81.95
73133;DHT22;61320;52.008;4.530;2023-05-10T08:37:18;15.67;82.48
73133;DHT22;61320;52.008;4.530;2023-05-10T08:39:43;15.80;81.67
73133;DHT22;61320;52.008;4.530;2023-05-10T08:42:12;15.87;81.79
73133;DHT22;61320;52.008;4.530;2023-05-10T08:44:42;15.97;82.02
73133;DHT22;61320;52.008;4.530;2023-05-10T08:47:09;16.09;80.71
73133;DHT22;61320;52.008;4.530;2023-05-10T08:49:37;16.02;81.67
73133;DHT22;61320;52.008;4.530;2023-05-10T08:52:06;16.08;80.44
73133;DHT22;61320;52.008;4.530;2023-05-10T08:54:32;16.05;80.94
73133;DHT22;61320;52.008;4.530;2023-05-10T08:56:58;16.02;80.23
73133;DHT22;61320;52.008;4.530;2023-05-10T08:59:24;15.87;80.80
73133;DHT22;61320;52.008;4.530;2023-05-10T09:01:50;15.75;80.48
73133;DHT22;61320;52.008;4.530;2023-05-10T09:04:19;15.77;81.46
73133;DHT22;61320;52.008;4.530;2023-05-10T09:06:45;15.84;80.16
73133;DHT22;61320;52.008;4.530;2023-05-10T09:09:11;15.70;79.57
73133;DHT22;61320;52.008;4.530;2023-05-10T09:11:37;15.73;80.85
73133;DHT22;61320;52.008;4.530;2023-05-10T09:14:03;15.78;80.27
73133;DHT22;61320;52.008;4.530;2023-05-10T09:16:28;15.80;80.95
73133;DHT22;61320;52.008;4.530;2023-05-10T09:18:54;15.78;78.85
73133;DHT22;61320;52.008;4.530;2023-05-10T09:21:19;15.77;81.47
73133;DHT22;61320;52.008;4.530;2023-05-10T09:23:47;15.95;81.86
73133;DHT22;61320;52.008;4.530;2023-05-10T09:26:12;16.04;81.82
73133;DHT22;61320;52.008;4.530;2023-05-10T09:28:53;16.08;81.11
73133;DHT22;61320;52.008;4.530;2023-05-10T09:31:19;16.14;81.11
73133;DHT22;61320;52.008;4.530;2023-05-10T09:33:46;16.16;81.81
73133;DHT22;61320;52.008;4.530;2023-05-10T09:36:11;16.22;82.42
73133;DHT22;61320;52.008;4.530;2023-05-10T09:38:51;16.33;81.80
73133;DHT22;61320;52.008;4.530;2023-05-10T09:41:25;16.39;81.82
73133;DHT22;61320;52.008;4.530;2023-05-10T09:43:55;16.49;81.72
73133;DHT22;61320;52.008;4.530;2023-05-10T09:46:22;16.56;80.38
73133;DHT22;61320;52.008;4.530;2023-05-10T09:48:48;16.62;80.92
73133;DHT22;61320;52.008;4.530;2023-05-10T09:51:20;16.67;80.98
73133;DHT22;61320;52.008;4.530;2023-05-10T09:53:46;16.70;80.87
73133;DHT22;61320;52.008;4.530;2023-05-10T09:56:11;16.77;81.31
73133;DHT22;61320;52.008;4.530;2023-05-10T09:58:37;16.87;80.11
73133;DHT22;61320;52.008;4.530;2023-05-10T10:01:11;16.87;79.38
73133;DHT22;61320;52.008;4.530;2023-05-10T10:03:42;17.00;78.05
73133;DHT22;61320;52.008;4.530;2023-05-10T10:06:08;17.03;78.66
73133;DHT22;61320;52.008;4.530;2023-05-10T10:08:34;17.08;77.38
73133;DHT22;61320;52.008;4.530;2023-05-10T10:11:00;17.07;78.69
73133;DHT22;61320;52.008;4.530;2023-05-10T10:13:26;17.18;78.99
73133;DHT22;61320;52.008;4.530;2023-05-10T10:15:54;17.20;80.34
73133;DHT22;61320;52.008;4.530;2023-05-10T10:18:20;17.35;77.11
73133;DHT22;61320;52.008;4.530;2023-05-10T10:20:49;17.51;75.86
73133;DHT22;61320;52.008;4.530;2023-05-10T10:23:15;18.09;79.71
73133;DHT22;61320;52.008;4.530;2023-05-10T10:25:40;18.85;80.19
73133;DHT22;61320;52.008;4.530;2023-05-10T10:28:31;19.12;71.09
73133;DHT22;61320;52.008;4.530;2023-05-10T10:31:10;18.82;74.25
73133;DHT22;61320;52.008;4.530;2023-05-10T10:33:55;18.50;74.25
73133;DHT22;61320;52.008;4.530;2023-05-10T10:36:22;18.36;75.00
73133;DHT22;61320;52.008;4.530;2023-05-10T10:41:37;18.33;76.50
73133;DHT22;61320;52.008;4.530;2023-05-10T10:49:26;18.34;76.20
73133;DHT22;61320;52.008;4.530;2023-05-10T10:52:15;18.37;74.87
73133;DHT22;61320;52.008;4.530;2023-05-10T10:55:07;18.48;75.37
73133;DHT22;61320;52.008;4.530;2023-05-10T10:57:51;18.52;75.91
73133;DHT22;61320;52.008;4.530;2023-05-10T11:02:53;18.68;76.00
73133;DHT22;61320;52.008;4.530;2023-05-10T11:07:55;18.78;75.49
73133;DHT22;61320;52.008;4.530;2023-05-10T11:10:22;18.73;74.83
73133;DHT22;61320;52.008;4.530;2023-05-10T11:15:39;18.73;75.31
73133;DHT22;61320;52.008;4.530;2023-05-10T11:18:26;18.67;73.09
73133;DHT22;61320;52.008;4.530;2023-05-10T11:21:00;18.61;70.96
73133;DHT22;61320;52.008;4.530;2023-05-10T11:23:33;18.50;76.22
73133;DHT22;61320;52.008;4.530;2023-05-10T11:26:12;18.57;76.38
73133;DHT22;61320;52.008;4.530;2023-05-10T11:28:48;18.54;74.41
73133;DHT22;61320;52.008;4.530;2023-05-10T11:31:15;18.48;76.94
73133;DHT22;61320;52.008;4.530;2023-05-10T11:36:24;18.47;72.78
73133;DHT22;61320;52.008;4.530;2023-05-10T11:38:50;18.29;71.38
73133;DHT22;61320;52.008;4.530;2023-05-10T11:41:18;18.11;73.51
73133;DHT22;61320;52.008;4.530;2023-05-10T11:43:46;18.09;73.90
73133;DHT22;61320;52.008;4.530;2023-05-10T11:46:14;18.14;73.51
73133;DHT22;61320;52.008;4.530;2023-05-10T11:48:42;18.20;73.23
73133;DHT22;61320;52.008;4.530;2023-05-10T11:51:08;18.14;72.47
73133;DHT22;61320;52.008;4.530;2023-05-10T11:53:34;18.07;71.59
73133;DHT22;61320;52.008;4.530;2023-05-10T11:56:18;17.85;73.70
73133;DHT22;61320;52.008;4.530;2023-05-10T11:58:44;17.71;72.91
73133;DHT22;61320;52.008;4.530;2023-05-10T12:01:10;17.71;76.03
73133;DHT22;61320;52.008;4.530;2023-05-10T12:03:37;17.87;74.15
73133;DHT22;61320;52.008;4.530;2023-05-10T12:06:04;17.97;76.17
73133;DHT22;61320;52.008;4.530;2023-05-10T12:08:30;18.14;76.10
73133;DHT22;61320;52.008;4.530;2023-05-10T12:11:07;18.30;74.30
73133;DHT22;61320;52.008;4.530;2023-05-10T12:13:40;18.34;73.31
73133;DHT22;61320;52.008;4.530;2023-05-10T12:16:13;18.34;74.18
73133;DHT22;61320;52.008;4.530;2023-05-10T12:18:40;18.45;73.37
73133;DHT22;61320;52.008;4.530;2023-05-10T12:21:06;18.43;73.90
73133;DHT22;61320;52.008;4.530;2023-05-10T12:23:31;18.36;72.89
73133;DHT22;61320;52.008;4.530;2023-05-10T12:26:04;18.31;73.69
73133;DHT22;61320;52.008;4.530;2023-05-10T12:28:32;18.09;71.45
73133;DHT22;61320;52.008;4.530;2023-05-10T12:30:58;17.99;72.09
73133;DHT22;61320;52.008;4.530;2023-05-10T12:33:24;17.92;73.83
73133;DHT22;61320;52.008;4.530;2023-05-10T12:35:51;17.82;71.38
73133;DHT22;61320;52.008;4.530;2023-05-10T12:38:28;17.63;71.83
73133;DHT22;61320;52.008;4.530;2023-05-10T12:40:59;17.42;73.42
73133;DHT22;61320;52.008;4.530;2023-05-10T12:43:25;17.42;75.35
73133;DHT22;61320;52.008;4.530;2023-05-10T12:45:50;17.36;72.87
73133;DHT22;61320;52.008;4.530;2023-05-10T12:48:15;17.34;74.74
73133;DHT22;61320;52.008;4.530;2023-05-10T12:50:41;17.24;74.37
73133;DHT22;61320;52.008;4.530;2023-05-10T12:53:07;17.20;74.37
73133;DHT22;61320;52.008;4.530;2023-05-10T12:55:32;17.31;74.91
73133;DHT22;61320;52.008;4.530;2023-05-10T12:57:57;17.41;74.34
73133;DHT22;61320;52.008;4.530;2023-05-10T13:00:23;17.55;75.31
73133;DHT22;61320;52.008;4.530;2023-05-10T13:02:48;17.68;74.71
73133;DHT22;61320;52.008;4.530;2023-05-10T13:05:14;17.75;71.24
73133;DHT22;61320;52.008;4.530;2023-05-10T13:07:39;17.68;72.93
73133;DHT22;61320;52.008;4.530;2023-05-10T13:10:06;17.79;72.55
73133;DHT22;61320;52.008;4.530;2023-05-10T13:12:31;17.83;72.52
73133;DHT22;61320;52.008;4.530;2023-05-10T13:14:57;17.89;73.09
73133;DHT22;61320;52.008;4.530;2023-05-10T13:17:23;17.96;73.73
73133;DHT22;61320;52.008;4.530;2023-05-10T13:19:48;18.06;73.61
73133;DHT22;61320;52.008;4.530;2023-05-10T13:22:13;18.10;70.97
73133;DHT22;61320;52.008;4.530;2023-05-10T13:24:40;18.11;74.04
73133;DHT22;61320;52.008;4.530;2023-05-10T13:27:06;18.14;70.68
73133;DHT22;61320;52.008;4.530;2023-05-10T13:29:31;18.03;73.44
73133;DHT22;61320;52.008;4.530;2023-05-10T13:31:59;17.96;71.05
73133;DHT22;61320;52.008;4.530;2023-05-10T13:34:24;17.87;71.60
73133;DHT22;61320;52.008;4.530;2023-05-10T13:36:50;17.79;70.80
73133;DHT22;61320;52.008;4.530;2023-05-10T13:39:16;17.76;72.88
73133;DHT22;61320;52.008;4.530;2023-05-10T13:41:42;17.72;73.33
73133;DHT22;61320;52.008;4.530;2023-05-10T13:44:07;17.69;73.44
73133;DHT22;61320;52.008;4.530;2023-05-10T13:46:33;17.69;73.96
73133;DHT22;61320;52.008;4.530;2023-05-10T13:48:58;17.73;73.02
73133;DHT22;61320;52.008;4.530;2023-05-10T13:51:24;17.75;73.40
73133;DHT22;61320;52.008;4.530;2023-05-10T13:53:49;17.72;74.39
73133;DHT22;61320;52.008;4.530;2023-05-10T13:56:15;17.72;74.24
73133;DHT22;61320;52.008;4.530;2023-05-10T13:58:41;17.73;74.75
73133;DHT22;61320;52.008;4.530;2023-05-10T14:01:06;17.79;74.20
73133;DHT22;61320;52.008;4.530;2023-05-10T14:03:32;17.79;73.63
73133;DHT22;61320;52.008;4.530;2023-05-10T14:05:57;17.82;74.45
73133;DHT22;61320;52.008;4.530;2023-05-10T14:08:23;17.92;74.60
73133;DHT22;61320;52.008;4.530;2023-05-10T14:10:48;17.97;73.52
73133;DHT22;61320;52.008;4.530;2023-05-10T14:13:14;18.03;73.39
73133;DHT22;61320;52.008;4.530;2023-05-10T14:15:40;18.09;74.21
73133;DHT22;61320;52.008;4.530;2023-05-10T14:18:06;18.16;72.81
73133;DHT22;61320;52.008;4.530;2023-05-10T14:20:32;18.13;73.04
73133;DHT22;61320;52.008;4.530;2023-05-10T14:22:59;18.11;73.83
73133;DHT22;61320;52.008;4.530;2023-05-10T14:25:25;18.17;73.24
73133;DHT22;61320;52.008;4.530;2023-05-10T14:27:51;18.14;73.06
73133;DHT22;61320;52.008;4.530;2023-05-10T14:30:19;18.13;73.05
73133;DHT22;61320;52.008;4.530;2023-05-10T14:32:44;18.17;72.81
73133;DHT22;61320;52.008;4.530;2023-05-10T14:35:10;18.11;70.76
73133;DHT22;61320;52.008;4.530;2023-05-10T14:37:35;18.03;72.97
73133;DHT22;61320;52.008;4.530;2023-05-10T14:40:02;18.09;69.60
73133;DHT22;61320;52.008;4.530;2023-05-10T14:42:29;17.97;71.55
73133;DHT22;61320;52.008;4.530;2023-05-10T14:44:55;17.97;71.54
73133;DHT22;61320;52.008;4.530;2023-05-10T14:47:20;17.99;72.31
73133;DHT22;61320;52.008;4.530;2023-05-10T14:49:45;18.06;72.72
73133;DHT22;61320;52.008;4.530;2023-05-10T14:52:11;18.11;73.18
73133;DHT22;61320;52.008;4.530;2023-05-10T14:54:37;18.20;71.96
73133;DHT22;61320;52.008;4.530;2023-05-10T14:57:03;18.21;71.97
73133;DHT22;61320;52.008;4.530;2023-05-10T14:59:29;18.13;71.48
73133;DHT22;61320;52.008;4.530;2023-05-10T15:01:54;18.13;70.83
73133;DHT22;61320;52.008;4.530;2023-05-10T15:04:20;18.13;71.94
73133;DHT22;61320;52.008;4.530;2023-05-10T15:06:46;18.09;73.03
73133;DHT22;61320;52.008;4.530;2023-05-10T15:09:12;18.09;72.50
73133;DHT22;61320;52.008;4.530;2023-05-10T15:11:37;18.11;68.85
73133;DHT22;61320;52.008;4.530;2023-05-10T15:14:02;18.07;71.18
73133;DHT22;61320;52.008;4.530;2023-05-10T15:16:28;18.07;73.33
73133;DHT22;61320;52.008;4.530;2023-05-10T15:18:53;18.09;72.47
73133;DHT22;61320;52.008;4.530;2023-05-10T15:21:19;18.17;73.99
73133;DHT22;61320;52.008;4.530;2023-05-10T15:23:44;18.16;73.23
73133;DHT22;61320;52.008;4.530;2023-05-10T15:26:09;18.20;72.40
73133;DHT22;61320;52.008;4.530;2023-05-10T15:28:35;18.18;71.62
73133;DHT22;61320;52.008;4.530;2023-05-10T15:31:00;18.24;71.30
73133;DHT22;61320;52.008;4.530;2023-05-10T15:33:26;18.20;73.01
73133;DHT22;61320;52.008;4.530;2023-05-10T15:35:52;18.26;71.26
73133;DHT22;61320;52.008;4.530;2023-05-10T15:38:19;18.16;69.70
73133;DHT22;61320;52.008;4.530;2023-05-10T15:40:44;18.17;70.31
73133;DHT22;61320;52.008;4.530;2023-05-10T15:43:10;18.11;71.02
73133;DHT22;61320;52.008;4.530;2023-05-10T15:45:35;18.11;71.31
73133;DHT22;61320;52.008;4.530;2023-05-10T15:48:01;18.09;70.51
73133;DHT22;61320;52.008;4.530;2023-05-10T15:50:26;18.07;73.10
73133;DHT22;61320;52.008;4.530;2023-05-10T15:52:52;18.13;73.40
73133;DHT22;61320;52.008;4.530;2023-05-10T15:55:19;18.26;71.77
73133;DHT22;61320;52.008;4.530;2023-05-10T15:57:44;18.24;67.99
73133;DHT22;61320;52.008;4.530;2023-05-10T16:00:11;18.18;71.32
73133;DHT22;61320;52.008;4.530;2023-05-10T16:02:38;18.20;72.00
73133;DHT22;61320;52.008;4.530;2023-05-10T16:05:04;18.16;71.89
73133;DHT22;61320;52.008;4.530;2023-05-10T16:07:29;18.13;71.76
73133;DHT22;61320;52.008;4.530;2023-05-10T16:09:55;18.11;72.61
73133;DHT22;61320;52.008;4.530;2023-05-10T16:12:20;18.13;71.04
73133;DHT22;61320;52.008;4.530;2023-05-10T16:14:47;18.13;73.11
73133;DHT22;61320;52.008;4.530;2023-05-10T16:17:13;18.20;72.22
73133;DHT22;61320;52.008;4.530;2023-05-10T16:19:39;18.23;72.03
73133;DHT22;61320;52.008;4.530;2023-05-10T16:22:05;18.36;71.61
73133;DHT22;61320;52.008;4.530;2023-05-10T16:24:31;18.47;70.70